Terminal Aerodrome Forecast
Issued by NWS

Home | Current Version | Previous Version | Graphics & Text | Print | Product List | Glossary On
Versions: 1 2 3 4 5 6 7 8 9 10 11 12 13 14 15 16 17 18 19 20 21
973
FTUS43 KMPX 162044 AAA
TAFAXN
TAF AMD
KAXN 162044Z 1621/1718 00000KT 6SM BR OVC007
     FM170300 00000KT 1/2SM FZFG OVC003
     FM171600 23004KT 5SM BR BKN020=

USA.gov is the U.S. government's official web portal to all federal, state and local government web resources and services.